sensor_id;sensor_type;location;lat;lon;timestamp;P1;durP1;ratioP1;P2;durP2;ratioP2
29774;SDS011;16676;51.202;6.774;2023-08-20T00:00:04;9.50;;;5.18;;
29774;SDS011;16676;51.202;6.774;2023-08-20T00:04:07;6.72;;;4.75;;
29774;SDS011;16676;51.202;6.774;2023-08-20T00:08:12;7.82;;;5.00;;
29774;SDS011;16676;51.202;6.774;2023-08-20T00:12:13;8.05;;;5.40;;
29774;SDS011;16676;51.202;6.774;2023-08-20T00:16:16;7.88;;;5.13;;
29774;SDS011;16676;51.202;6.774;2023-08-20T00:20:18;7.22;;;5.32;;
29774;SDS011;16676;51.202;6.774;2023-08-20T00:24:22;8.45;;;5.32;;
29774;SDS011;16676;51.202;6.774;2023-08-20T00:28:25;10.35;;;5.40;;
29774;SDS011;16676;51.202;6.774;2023-08-20T00:32:26;8.60;;;5.47;;
29774;SDS011;16676;51.202;6.774;2023-08-20T00:36:28;7.93;;;5.30;;
29774;SDS011;16676;51.202;6.774;2023-08-20T00:40:32;10.43;;;5.65;;
29774;SDS011;16676;51.202;6.774;2023-08-20T00:44:34;10.07;;;5.28;;
29774;SDS011;16676;51.202;6.774;2023-08-20T00:48:36;7.43;;;5.22;;
29774;SDS011;16676;51.202;6.774;2023-08-20T00:52:38;7.78;;;4.20;;
29774;SDS011;16676;51.202;6.774;2023-08-20T00:56:42;8.82;;;5.78;;
29774;SDS011;16676;51.202;6.774;2023-08-20T01:00:45;10.23;;;5.97;;
29774;SDS011;16676;51.202;6.774;2023-08-20T01:04:47;7.32;;;5.53;;
29774;SDS011;16676;51.202;6.774;2023-08-20T01:08:51;11.77;;;6.15;;
29774;SDS011;16676;51.202;6.774;2023-08-20T01:13:04;8.93;;;6.60;;
29774;SDS011;16676;51.202;6.774;2023-08-20T01:17:07;8.00;;;5.78;;
29774;SDS011;16676;51.202;6.774;2023-08-20T01:21:11;8.93;;;5.72;;
29774;SDS011;16676;51.202;6.774;2023-08-20T01:25:24;9.38;;;6.38;;
29774;SDS011;16676;51.202;6.774;2023-08-20T01:29:41;7.72;;;5.53;;
29774;SDS011;16676;51.202;6.774;2023-08-20T01:33:44;8.15;;;5.82;;
29774;SDS011;16676;51.202;6.774;2023-08-20T01:37:46;7.20;;;5.63;;
29774;SDS011;16676;51.202;6.774;2023-08-20T01:41:48;8.32;;;5.68;;
29774;SDS011;16676;51.202;6.774;2023-08-20T01:45:51;8.32;;;5.72;;
29774;SDS011;16676;51.202;6.774;2023-08-20T01:49:53;7.90;;;5.70;;
29774;SDS011;16676;51.202;6.774;2023-08-20T01:53:55;9.27;;;5.70;;
29774;SDS011;16676;51.202;6.774;2023-08-20T01:57:57;9.98;;;6.32;;
29774;SDS011;16676;51.202;6.774;2023-08-20T02:02:00;9.50;;;6.25;;
29774;SDS011;16676;51.202;6.774;2023-08-20T02:06:04;9.73;;;6.45;;
29774;SDS011;16676;51.202;6.774;2023-08-20T02:10:07;9.63;;;6.22;;
29774;SDS011;16676;51.202;6.774;2023-08-20T02:14:09;7.38;;;5.85;;
29774;SDS011;16676;51.202;6.774;2023-08-20T02:18:12;10.80;;;6.00;;
29774;SDS011;16676;51.202;6.774;2023-08-20T02:22:17;6.18;;;5.43;;
29774;SDS011;16676;51.202;6.774;2023-08-20T02:26:21;6.93;;;5.30;;
29774;SDS011;16676;51.202;6.774;2023-08-20T02:30:23;8.20;;;6.07;;
29774;SDS011;16676;51.202;6.774;2023-08-20T02:34:26;11.63;;;6.63;;
29774;SDS011;16676;51.202;6.774;2023-08-20T02:38:28;7.90;;;6.53;;
29774;SDS011;16676;51.202;6.774;2023-08-20T02:42:30;12.65;;;7.05;;
29774;SDS011;16676;51.202;6.774;2023-08-20T02:46:32;9.65;;;6.30;;
29774;SDS011;16676;51.202;6.774;2023-08-20T02:50:35;9.15;;;6.15;;
29774;SDS011;16676;51.202;6.774;2023-08-20T02:54:37;7.32;;;5.72;;
29774;SDS011;16676;51.202;6.774;2023-08-20T02:58:39;8.18;;;5.80;;
29774;SDS011;16676;51.202;6.774;2023-08-20T03:02:41;10.25;;;6.80;;
29774;SDS011;16676;51.202;6.774;2023-08-20T03:06:44;8.88;;;5.70;;
29774;SDS011;16676;51.202;6.774;2023-08-20T03:10:46;10.07;;;7.20;;
29774;SDS011;16676;51.202;6.774;2023-08-20T03:14:48;14.88;;;7.38;;
29774;SDS011;16676;51.202;6.774;2023-08-20T03:18:50;11.32;;;6.90;;
29774;SDS011;16676;51.202;6.774;2023-08-20T03:22:53;13.15;;;7.10;;
29774;SDS011;16676;51.202;6.774;2023-08-20T03:26:55;7.82;;;5.68;;
29774;SDS011;16676;51.202;6.774;2023-08-20T03:30:59;10.30;;;5.60;;
29774;SDS011;16676;51.202;6.774;2023-08-20T03:35:02;9.93;;;6.82;;
29774;SDS011;16676;51.202;6.774;2023-08-20T03:39:05;7.80;;;5.43;;
29774;SDS011;16676;51.202;6.774;2023-08-20T03:43:07;6.45;;;5.20;;
29774;SDS011;16676;51.202;6.774;2023-08-20T03:47:09;9.75;;;5.85;;
29774;SDS011;16676;51.202;6.774;2023-08-20T03:51:11;9.35;;;6.53;;
29774;SDS011;16676;51.202;6.774;2023-08-20T03:55:15;6.70;;;5.15;;
29774;SDS011;16676;51.202;6.774;2023-08-20T03:59:17;7.75;;;5.18;;
29774;SDS011;16676;51.202;6.774;2023-08-20T04:03:18;8.70;;;5.03;;
29774;SDS011;16676;51.202;6.774;2023-08-20T04:07:20;9.70;;;5.68;;
29774;SDS011;16676;51.202;6.774;2023-08-20T04:11:24;9.68;;;5.57;;
29774;SDS011;16676;51.202;6.774;2023-08-20T04:15:26;12.13;;;5.97;;
29774;SDS011;16676;51.202;6.774;2023-08-20T04:19:28;9.40;;;6.03;;
29774;SDS011;16676;51.202;6.774;2023-08-20T04:23:30;9.90;;;5.75;;
29774;SDS011;16676;51.202;6.774;2023-08-20T04:27:33;10.65;;;5.43;;
29774;SDS011;16676;51.202;6.774;2023-08-20T04:31:35;12.38;;;5.60;;
29774;SDS011;16676;51.202;6.774;2023-08-20T04:35:37;9.60;;;5.45;;
29774;SDS011;16676;51.202;6.774;2023-08-20T04:39:39;9.32;;;6.13;;
29774;SDS011;16676;51.202;6.774;2023-08-20T04:43:42;7.18;;;5.25;;
29774;SDS011;16676;51.202;6.774;2023-08-20T04:47:44;10.15;;;6.03;;
29774;SDS011;16676;51.202;6.774;2023-08-20T04:51:46;8.40;;;5.10;;
29774;SDS011;16676;51.202;6.774;2023-08-20T04:55:48;11.65;;;5.65;;
29774;SDS011;16676;51.202;6.774;2023-08-20T04:59:51;10.73;;;5.72;;
29774;SDS011;16676;51.202;6.774;2023-08-20T05:03:53;11.13;;;5.32;;
29774;SDS011;16676;51.202;6.774;2023-08-20T05:07:55;8.68;;;4.80;;
29774;SDS011;16676;51.202;6.774;2023-08-20T05:11:57;8.43;;;4.95;;
29774;SDS011;16676;51.202;6.774;2023-08-20T05:16:01;11.55;;;6.88;;
29774;SDS011;16676;51.202;6.774;2023-08-20T05:20:03;12.23;;;6.50;;
29774;SDS011;16676;51.202;6.774;2023-08-20T05:24:05;12.88;;;6.13;;
29774;SDS011;16676;51.202;6.774;2023-08-20T05:28:07;8.48;;;5.32;;
29774;SDS011;16676;51.202;6.774;2023-08-20T05:32:11;12.65;;;6.10;;
29774;SDS011;16676;51.202;6.774;2023-08-20T05:36:13;8.82;;;5.35;;
29774;SDS011;16676;51.202;6.774;2023-08-20T05:40:15;9.27;;;5.60;;
29774;SDS011;16676;51.202;6.774;2023-08-20T05:44:17;10.90;;;5.38;;
29774;SDS011;16676;51.202;6.774;2023-08-20T05:48:21;9.55;;;5.13;;
29774;SDS011;16676;51.202;6.774;2023-08-20T05:52:23;6.15;;;5.10;;
29774;SDS011;16676;51.202;6.774;2023-08-20T05:56:24;9.75;;;5.63;;
29774;SDS011;16676;51.202;6.774;2023-08-20T06:00:26;9.45;;;5.68;;
29774;SDS011;16676;51.202;6.774;2023-08-20T06:04:30;8.88;;;5.43;;
29774;SDS011;16676;51.202;6.774;2023-08-20T06:08:32;9.20;;;5.32;;
29774;SDS011;16676;51.202;6.774;2023-08-20T06:12:34;8.43;;;5.72;;
29774;SDS011;16676;51.202;6.774;2023-08-20T06:16:36;13.25;;;5.72;;
29774;SDS011;16676;51.202;6.774;2023-08-20T06:20:39;8.10;;;4.97;;
29774;SDS011;16676;51.202;6.774;2023-08-20T06:24:42;8.05;;;5.03;;
29774;SDS011;16676;51.202;6.774;2023-08-20T06:28:44;14.35;;;5.30;;
29774;SDS011;16676;51.202;6.774;2023-08-20T06:32:46;13.00;;;7.60;;
29774;SDS011;16676;51.202;6.774;2023-08-20T06:36:49;15.70;;;7.40;;
29774;SDS011;16676;51.202;6.774;2023-08-20T06:40:51;11.65;;;6.95;;
29774;SDS011;16676;51.202;6.774;2023-08-20T06:44:54;12.32;;;8.05;;
29774;SDS011;16676;51.202;6.774;2023-08-20T06:48:56;13.90;;;8.60;;
29774;SDS011;16676;51.202;6.774;2023-08-20T06:52:59;11.10;;;8.05;;
29774;SDS011;16676;51.202;6.774;2023-08-20T06:57:01;13.63;;;7.45;;
29774;SDS011;16676;51.202;6.774;2023-08-20T07:01:03;15.52;;;9.63;;
29774;SDS011;16676;51.202;6.774;2023-08-20T07:05:08;17.58;;;10.50;;
29774;SDS011;16676;51.202;6.774;2023-08-20T07:09:11;19.85;;;10.10;;
29774;SDS011;16676;51.202;6.774;2023-08-20T07:13:13;13.15;;;7.57;;
29774;SDS011;16676;51.202;6.774;2023-08-20T07:17:15;11.57;;;6.80;;
29774;SDS011;16676;51.202;6.774;2023-08-20T07:21:17;16.15;;;9.68;;
29774;SDS011;16676;51.202;6.774;2023-08-20T07:25:20;15.52;;;9.73;;
29774;SDS011;16676;51.202;6.774;2023-08-20T07:29:22;20.05;;;10.75;;
29774;SDS011;16676;51.202;6.774;2023-08-20T07:33:25;21.55;;;11.68;;
29774;SDS011;16676;51.202;6.774;2023-08-20T07:37:27;18.63;;;11.65;;
29774;SDS011;16676;51.202;6.774;2023-08-20T07:41:30;22.20;;;14.05;;
29774;SDS011;16676;51.202;6.774;2023-08-20T07:45:32;21.25;;;14.30;;
29774;SDS011;16676;51.202;6.774;2023-08-20T07:49:34;19.23;;;13.55;;
29774;SDS011;16676;51.202;6.774;2023-08-20T07:53:36;21.83;;;12.90;;
29774;SDS011;16676;51.202;6.774;2023-08-20T07:57:39;21.30;;;12.57;;
29774;SDS011;16676;51.202;6.774;2023-08-20T08:01:41;14.52;;;12.02;;
29774;SDS011;16676;51.202;6.774;2023-08-20T08:05:45;12.30;;;8.68;;
29774;SDS011;16676;51.202;6.774;2023-08-20T08:09:48;16.73;;;11.25;;
29774;SDS011;16676;51.202;6.774;2023-08-20T08:13:51;20.25;;;12.45;;
29774;SDS011;16676;51.202;6.774;2023-08-20T08:17:53;19.83;;;12.90;;
29774;SDS011;16676;51.202;6.774;2023-08-20T08:21:56;19.13;;;11.35;;
29774;SDS011;16676;51.202;6.774;2023-08-20T08:25:58;15.02;;;10.23;;
29774;SDS011;16676;51.202;6.774;2023-08-20T08:30:01;17.83;;;9.48;;
29774;SDS011;16676;51.202;6.774;2023-08-20T08:34:03;15.80;;;10.75;;
29774;SDS011;16676;51.202;6.774;2023-08-20T08:38:05;13.63;;;8.30;;
29774;SDS011;16676;51.202;6.774;2023-08-20T08:42:07;12.70;;;9.05;;
29774;SDS011;16676;51.202;6.774;2023-08-20T08:46:14;13.25;;;8.15;;
29774;SDS011;16676;51.202;6.774;2023-08-20T08:50:16;15.88;;;9.13;;
29774;SDS011;16676;51.202;6.774;2023-08-20T08:54:18;16.67;;;11.35;;
29774;SDS011;16676;51.202;6.774;2023-08-20T08:58:22;15.73;;;10.35;;
29774;SDS011;16676;51.202;6.774;2023-08-20T09:02:25;15.82;;;9.38;;
29774;SDS011;16676;51.202;6.774;2023-08-20T09:06:29;12.50;;;8.38;;
29774;SDS011;16676;51.202;6.774;2023-08-20T09:10:46;11.93;;;8.60;;
29774;SDS011;16676;51.202;6.774;2023-08-20T09:14:51;11.63;;;7.93;;
29774;SDS011;16676;51.202;6.774;2023-08-20T09:18:57;12.93;;;7.15;;
29774;SDS011;16676;51.202;6.774;2023-08-20T09:23:00;10.70;;;6.45;;
29774;SDS011;16676;51.202;6.774;2023-08-20T09:27:03;7.47;;;4.40;;
29774;SDS011;16676;51.202;6.774;2023-08-20T09:31:06;12.40;;;7.07;;
29774;SDS011;16676;51.202;6.774;2023-08-20T09:35:17;10.60;;;4.82;;
29774;SDS011;16676;51.202;6.774;2023-08-20T09:39:19;10.07;;;5.25;;
29774;SDS011;16676;51.202;6.774;2023-08-20T09:43:23;6.55;;;3.70;;
29774;SDS011;16676;51.202;6.774;2023-08-20T09:47:28;8.30;;;4.22;;
29774;SDS011;16676;51.202;6.774;2023-08-20T09:51:35;13.00;;;5.47;;
29774;SDS011;16676;51.202;6.774;2023-08-20T09:55:39;9.32;;;5.30;;
29774;SDS011;16676;51.202;6.774;2023-08-20T09:59:43;10.30;;;4.93;;
29774;SDS011;16676;51.202;6.774;2023-08-20T10:03:48;13.88;;;5.80;;
29774;SDS011;16676;51.202;6.774;2023-08-20T10:07:51;7.63;;;4.80;;
29774;SDS011;16676;51.202;6.774;2023-08-20T10:11:53;8.70;;;5.60;;
29774;SDS011;16676;51.202;6.774;2023-08-20T10:15:55;13.38;;;5.95;;
29774;SDS011;16676;51.202;6.774;2023-08-20T10:19:58;12.63;;;7.57;;
29774;SDS011;16676;51.202;6.774;2023-08-20T10:24:06;10.57;;;7.10;;
29774;SDS011;16676;51.202;6.774;2023-08-20T10:28:12;12.15;;;6.38;;
29774;SDS011;16676;51.202;6.774;2023-08-20T10:32:15;12.97;;;7.10;;
29774;SDS011;16676;51.202;6.774;2023-08-20T10:36:17;12.52;;;6.65;;
29774;SDS011;16676;51.202;6.774;2023-08-20T10:44:57;12.20;;;6.10;;
29774;SDS011;16676;51.202;6.774;2023-08-20T10:49:01;9.57;;;5.50;;
29774;SDS011;16676;51.202;6.774;2023-08-20T10:53:04;8.07;;;5.32;;
29774;SDS011;16676;51.202;6.774;2023-08-20T10:57:07;7.75;;;4.63;;
29774;SDS011;16676;51.202;6.774;2023-08-20T11:01:17;10.70;;;4.85;;
29774;SDS011;16676;51.202;6.774;2023-08-20T11:05:20;11.48;;;5.07;;
29774;SDS011;16676;51.202;6.774;2023-08-20T11:09:23;8.93;;;5.22;;
29774;SDS011;16676;51.202;6.774;2023-08-20T11:13:27;10.77;;;5.50;;
29774;SDS011;16676;51.202;6.774;2023-08-20T11:17:29;8.88;;;5.05;;
29774;SDS011;16676;51.202;6.774;2023-08-20T11:21:31;10.63;;;5.75;;
29774;SDS011;16676;51.202;6.774;2023-08-20T11:25:34;10.85;;;6.28;;
29774;SDS011;16676;51.202;6.774;2023-08-20T11:29:37;11.32;;;7.00;;
29774;SDS011;16676;51.202;6.774;2023-08-20T11:33:43;10.10;;;6.00;;
29774;SDS011;16676;51.202;6.774;2023-08-20T11:37:46;11.23;;;6.60;;
29774;SDS011;16676;51.202;6.774;2023-08-20T11:41:49;9.35;;;7.05;;
29774;SDS011;16676;51.202;6.774;2023-08-20T11:45:53;13.88;;;6.50;;
29774;SDS011;16676;51.202;6.774;2023-08-20T11:50:04;12.85;;;8.15;;
29774;SDS011;16676;51.202;6.774;2023-08-20T11:54:07;11.48;;;7.70;;
29774;SDS011;16676;51.202;6.774;2023-08-20T11:58:11;14.02;;;8.45;;
29774;SDS011;16676;51.202;6.774;2023-08-20T12:02:15;10.13;;;8.45;;
29774;SDS011;16676;51.202;6.774;2023-08-20T12:06:25;10.40;;;7.53;;
29774;SDS011;16676;51.202;6.774;2023-08-20T12:10:31;11.85;;;8.88;;
29774;SDS011;16676;51.202;6.774;2023-08-20T12:14:33;13.32;;;8.40;;
29774;SDS011;16676;51.202;6.774;2023-08-20T12:18:36;10.73;;;7.63;;
29774;SDS011;16676;51.202;6.774;2023-08-20T12:22:39;10.07;;;7.25;;
29774;SDS011;16676;51.202;6.774;2023-08-20T12:26:41;11.43;;;7.03;;
29774;SDS011;16676;51.202;6.774;2023-08-20T12:30:43;8.35;;;7.20;;
29774;SDS011;16676;51.202;6.774;2023-08-20T12:34:47;11.05;;;7.70;;
29774;SDS011;16676;51.202;6.774;2023-08-20T12:38:49;11.35;;;7.40;;
29774;SDS011;16676;51.202;6.774;2023-08-20T12:42:51;11.18;;;7.20;;
29774;SDS011;16676;51.202;6.774;2023-08-20T12:46:53;12.30;;;7.60;;
29774;SDS011;16676;51.202;6.774;2023-08-20T12:50:57;12.63;;;7.43;;
29774;SDS011;16676;51.202;6.774;2023-08-20T12:54:59;10.35;;;6.85;;
29774;SDS011;16676;51.202;6.774;2023-08-20T12:59:01;13.40;;;6.60;;
29774;SDS011;16676;51.202;6.774;2023-08-20T13:03:03;11.57;;;6.53;;
29774;SDS011;16676;51.202;6.774;2023-08-20T13:07:07;9.80;;;6.72;;
29774;SDS011;16676;51.202;6.774;2023-08-20T13:11:10;9.88;;;6.70;;
29774;SDS011;16676;51.202;6.774;2023-08-20T13:15:18;8.45;;;6.90;;
29774;SDS011;16676;51.202;6.774;2023-08-20T13:19:21;10.38;;;6.90;;
29774;SDS011;16676;51.202;6.774;2023-08-20T13:23:24;9.45;;;6.30;;
29774;SDS011;16676;51.202;6.774;2023-08-20T13:27:26;9.32;;;6.55;;
29774;SDS011;16676;51.202;6.774;2023-08-20T13:31:28;8.80;;;6.25;;
29774;SDS011;16676;51.202;6.774;2023-08-20T13:35:30;9.02;;;6.00;;
29774;SDS011;16676;51.202;6.774;2023-08-20T13:39:33;10.93;;;6.13;;
29774;SDS011;16676;51.202;6.774;2023-08-20T13:43:35;12.55;;;6.88;;
29774;SDS011;16676;51.202;6.774;2023-08-20T13:47:37;12.70;;;6.13;;
29774;SDS011;16676;51.202;6.774;2023-08-20T13:51:39;8.32;;;5.95;;
29774;SDS011;16676;51.202;6.774;2023-08-20T13:55:42;12.10;;;5.82;;
29774;SDS011;16676;51.202;6.774;2023-08-20T13:59:44;9.70;;;5.47;;
29774;SDS011;16676;51.202;6.774;2023-08-20T14:03:46;13.50;;;5.57;;
29774;SDS011;16676;51.202;6.774;2023-08-20T14:07:48;9.27;;;5.72;;
29774;SDS011;16676;51.202;6.774;2023-08-20T14:11:51;7.28;;;5.18;;
29774;SDS011;16676;51.202;6.774;2023-08-20T14:15:53;7.78;;;5.60;;
29774;SDS011;16676;51.202;6.774;2023-08-20T14:19:55;9.38;;;5.22;;
29774;SDS011;16676;51.202;6.774;2023-08-20T14:23:57;9.25;;;4.90;;
29774;SDS011;16676;51.202;6.774;2023-08-20T14:28:00;8.93;;;5.22;;
29774;SDS011;16676;51.202;6.774;2023-08-20T14:32:02;10.20;;;5.20;;
29774;SDS011;16676;51.202;6.774;2023-08-20T14:36:04;12.23;;;5.28;;
29774;SDS011;16676;51.202;6.774;2023-08-20T14:40:07;8.13;;;4.82;;
29774;SDS011;16676;51.202;6.774;2023-08-20T14:44:13;8.55;;;4.85;;
29774;SDS011;16676;51.202;6.774;2023-08-20T14:48:14;8.75;;;4.30;;
29774;SDS011;16676;51.202;6.774;2023-08-20T14:52:16;9.13;;;4.28;;
29774;SDS011;16676;51.202;6.774;2023-08-20T14:56:18;8.18;;;4.63;;
29774;SDS011;16676;51.202;6.774;2023-08-20T15:00:22;10.65;;;4.40;;
29774;SDS011;16676;51.202;6.774;2023-08-20T15:04:24;7.13;;;4.13;;
29774;SDS011;16676;51.202;6.774;2023-08-20T15:08:26;7.32;;;4.15;;
29774;SDS011;16676;51.202;6.774;2023-08-20T15:12:28;7.07;;;4.07;;
29774;SDS011;16676;51.202;6.774;2023-08-20T15:16:33;6.53;;;3.88;;
29774;SDS011;16676;51.202;6.774;2023-08-20T15:20:36;7.97;;;3.67;;
29774;SDS011;16676;51.202;6.774;2023-08-20T15:24:37;5.57;;;3.35;;
29774;SDS011;16676;51.202;6.774;2023-08-20T15:28:39;5.93;;;3.65;;
29774;SDS011;16676;51.202;6.774;2023-08-20T15:32:43;14.52;;;3.63;;
29774;SDS011;16676;51.202;6.774;2023-08-20T15:36:45;5.25;;;2.83;;
29774;SDS011;16676;51.202;6.774;2023-08-20T15:40:46;6.53;;;3.53;;
29774;SDS011;16676;51.202;6.774;2023-08-20T15:44:48;6.38;;;3.45;;
29774;SDS011;16676;51.202;6.774;2023-08-20T15:48:52;12.05;;;3.75;;
29774;SDS011;16676;51.202;6.774;2023-08-20T15:52:54;6.07;;;3.47;;
29774;SDS011;16676;51.202;6.774;2023-08-20T15:56:56;7.90;;;3.22;;
29774;SDS011;16676;51.202;6.774;2023-08-20T16:00:58;7.72;;;3.38;;
29774;SDS011;16676;51.202;6.774;2023-08-20T16:05:01;10.38;;;3.80;;
29774;SDS011;16676;51.202;6.774;2023-08-20T16:09:04;9.50;;;3.42;;
29774;SDS011;16676;51.202;6.774;2023-08-20T16:13:08;10.02;;;3.47;;
29774;SDS011;16676;51.202;6.774;2023-08-20T16:17:10;7.97;;;3.17;;
29774;SDS011;16676;51.202;6.774;2023-08-20T16:21:13;6.65;;;3.05;;
29774;SDS011;16676;51.202;6.774;2023-08-20T16:25:15;8.55;;;3.25;;
29774;SDS011;16676;51.202;6.774;2023-08-20T16:29:17;5.47;;;2.90;;
29774;SDS011;16676;51.202;6.774;2023-08-20T16:33:19;6.28;;;2.90;;
29774;SDS011;16676;51.202;6.774;2023-08-20T16:37:25;5.22;;;2.38;;
29774;SDS011;16676;51.202;6.774;2023-08-20T16:41:27;9.13;;;3.22;;
29774;SDS011;16676;51.202;6.774;2023-08-20T16:45:29;8.85;;;3.20;;
29774;SDS011;16676;51.202;6.774;2023-08-20T16:49:31;7.97;;;2.75;;
29774;SDS011;16676;51.202;6.774;2023-08-20T16:53:34;6.35;;;2.65;;
29774;SDS011;16676;51.202;6.774;2023-08-20T16:57:37;7.05;;;2.35;;
29774;SDS011;16676;51.202;6.774;2023-08-20T17:01:39;5.63;;;2.28;;
29774;SDS011;16676;51.202;6.774;2023-08-20T17:05:41;8.25;;;2.50;;
29774;SDS011;16676;51.202;6.774;2023-08-20T17:09:44;8.18;;;2.70;;
29774;SDS011;16676;51.202;6.774;2023-08-20T17:13:46;6.03;;;2.42;;
29774;SDS011;16676;51.202;6.774;2023-08-20T17:17:48;7.47;;;2.50;;
29774;SDS011;16676;51.202;6.774;2023-08-20T17:21:50;6.88;;;2.47;;
29774;SDS011;16676;51.202;6.774;2023-08-20T17:25:54;6.53;;;2.03;;
29774;SDS011;16676;51.202;6.774;2023-08-20T17:29:56;3.97;;;1.88;;
29774;SDS011;16676;51.202;6.774;2023-08-20T17:33:58;6.95;;;1.90;;
29774;SDS011;16676;51.202;6.774;2023-08-20T17:38:00;6.72;;;2.47;;
29774;SDS011;16676;51.202;6.774;2023-08-20T17:42:05;5.75;;;1.92;;
29774;SDS011;16676;51.202;6.774;2023-08-20T17:46:08;9.32;;;2.50;;
29774;SDS011;16676;51.202;6.774;2023-08-20T17:50:11;6.10;;;2.05;;
29774;SDS011;16676;51.202;6.774;2023-08-20T17:54:13;7.35;;;2.30;;
29774;SDS011;16676;51.202;6.774;2023-08-20T17:58:17;4.93;;;2.00;;
29774;SDS011;16676;51.202;6.774;2023-08-20T18:02:18;5.60;;;2.33;;
29774;SDS011;16676;51.202;6.774;2023-08-20T18:06:20;3.80;;;1.90;;
29774;SDS011;16676;51.202;6.774;2023-08-20T18:10:22;6.45;;;2.08;;
29774;SDS011;16676;51.202;6.774;2023-08-20T18:14:26;5.82;;;2.38;;
29774;SDS011;16676;51.202;6.774;2023-08-20T18:18:28;6.15;;;2.40;;
29774;SDS011;16676;51.202;6.774;2023-08-20T18:22:32;10.10;;;2.80;;
29774;SDS011;16676;51.202;6.774;2023-08-20T18:26:34;9.13;;;3.08;;
29774;SDS011;16676;51.202;6.774;2023-08-20T18:30:37;7.47;;;2.60;;
29774;SDS011;16676;51.202;6.774;2023-08-20T18:34:39;9.50;;;2.60;;
29774;SDS011;16676;51.202;6.774;2023-08-20T18:38:41;11.63;;;3.25;;
29774;SDS011;16676;51.202;6.774;2023-08-20T18:42:43;8.40;;;2.78;;
29774;SDS011;16676;51.202;6.774;2023-08-20T18:46:46;10.38;;;2.58;;
29774;SDS011;16676;51.202;6.774;2023-08-20T18:50:48;7.00;;;2.50;;
29774;SDS011;16676;51.202;6.774;2023-08-20T18:54:50;5.43;;;2.00;;
29774;SDS011;16676;51.202;6.774;2023-08-20T18:58:52;5.68;;;2.10;;
29774;SDS011;16676;51.202;6.774;2023-08-20T19:02:55;5.55;;;2.42;;
29774;SDS011;16676;51.202;6.774;2023-08-20T19:06:57;8.05;;;2.33;;
29774;SDS011;16676;51.202;6.774;2023-08-20T19:10:59;5.60;;;2.13;;
29774;SDS011;16676;51.202;6.774;2023-08-20T19:15:01;5.88;;;2.70;;
29774;SDS011;16676;51.202;6.774;2023-08-20T19:19:06;6.10;;;2.15;;
29774;SDS011;16676;51.202;6.774;2023-08-20T19:23:09;7.07;;;1.83;;
29774;SDS011;16676;51.202;6.774;2023-08-20T19:27:11;6.63;;;2.17;;
29774;SDS011;16676;51.202;6.774;2023-08-20T19:31:16;5.40;;;2.28;;
29774;SDS011;16676;51.202;6.774;2023-08-20T19:35:20;11.15;;;2.85;;
29774;SDS011;16676;51.202;6.774;2023-08-20T19:39:22;7.93;;;2.90;;
29774;SDS011;16676;51.202;6.774;2023-08-20T19:43:24;9.75;;;3.13;;
29774;SDS011;16676;51.202;6.774;2023-08-20T19:47:26;5.30;;;2.45;;
29774;SDS011;16676;51.202;6.774;2023-08-20T19:51:29;9.80;;;3.03;;
29774;SDS011;16676;51.202;6.774;2023-08-20T19:55:31;7.60;;;2.92;;
29774;SDS011;16676;51.202;6.774;2023-08-20T19:59:33;9.55;;;2.97;;
29774;SDS011;16676;51.202;6.774;2023-08-20T20:03:35;6.63;;;3.42;;
29774;SDS011;16676;51.202;6.774;2023-08-20T20:07:39;9.45;;;2.97;;
29774;SDS011;16676;51.202;6.774;2023-08-20T20:11:41;5.65;;;2.67;;
29774;SDS011;16676;51.202;6.774;2023-08-20T20:15:43;7.82;;;2.83;;
29774;SDS011;16676;51.202;6.774;2023-08-20T20:19:45;7.35;;;3.30;;
29774;SDS011;16676;51.202;6.774;2023-08-20T20:23:48;8.23;;;2.70;;
29774;SDS011;16676;51.202;6.774;2023-08-20T20:27:50;6.97;;;3.00;;
29774;SDS011;16676;51.202;6.774;2023-08-20T20:31:52;7.13;;;2.50;;
29774;SDS011;16676;51.202;6.774;2023-08-20T20:35:54;7.53;;;2.17;;
29774;SDS011;16676;51.202;6.774;2023-08-20T20:39:57;5.97;;;2.22;;
29774;SDS011;16676;51.202;6.774;2023-08-20T20:43:59;8.32;;;2.42;;
29774;SDS011;16676;51.202;6.774;2023-08-20T20:48:01;5.22;;;1.98;;
29774;SDS011;16676;51.202;6.774;2023-08-20T20:52:04;6.40;;;1.70;;
29774;SDS011;16676;51.202;6.774;2023-08-20T20:56:08;5.18;;;1.90;;
29774;SDS011;16676;51.202;6.774;2023-08-20T21:00:10;7.72;;;1.90;;
29774;SDS011;16676;51.202;6.774;2023-08-20T21:04:12;6.38;;;1.60;;
29774;SDS011;16676;51.202;6.774;2023-08-20T21:08:14;5.15;;;2.03;;
29774;SDS011;16676;51.202;6.774;2023-08-20T21:12:17;5.28;;;1.67;;
29774;SDS011;16676;51.202;6.774;2023-08-20T21:16:19;3.42;;;1.80;;
29774;SDS011;16676;51.202;6.774;2023-08-20T21:20:21;4.18;;;1.75;;
29774;SDS011;16676;51.202;6.774;2023-08-20T21:24:23;5.50;;;1.40;;
29774;SDS011;16676;51.202;6.774;2023-08-20T21:28:27;5.35;;;1.50;;
29774;SDS011;16676;51.202;6.774;2023-08-20T21:32:28;6.65;;;2.03;;
29774;SDS011;16676;51.202;6.774;2023-08-20T21:36:30;6.90;;;2.38;;
29774;SDS011;16676;51.202;6.774;2023-08-20T21:40:32;7.50;;;2.10;;
29774;SDS011;16676;51.202;6.774;2023-08-20T21:44:36;7.68;;;2.03;;
29774;SDS011;16676;51.202;6.774;2023-08-20T21:48:38;6.65;;;1.90;;
29774;SDS011;16676;51.202;6.774;2023-08-20T21:52:40;4.63;;;2.20;;
29774;SDS011;16676;51.202;6.774;2023-08-20T21:56:42;5.68;;;2.33;;
29774;SDS011;16676;51.202;6.774;2023-08-20T22:00:45;5.20;;;2.13;;
29774;SDS011;16676;51.202;6.774;2023-08-20T22:04:47;6.47;;;2.35;;
29774;SDS011;16676;51.202;6.774;2023-08-20T22:08:49;3.67;;;2.15;;
29774;SDS011;16676;51.202;6.774;2023-08-20T22:12:51;7.72;;;1.92;;
29774;SDS011;16676;51.202;6.774;2023-08-20T22:16:54;8.70;;;2.10;;
29774;SDS011;16676;51.202;6.774;2023-08-20T22:20:56;4.93;;;1.90;;
29774;SDS011;16676;51.202;6.774;2023-08-20T22:24:58;4.68;;;1.80;;
29774;SDS011;16676;51.202;6.774;2023-08-20T22:29:00;6.05;;;1.90;;
29774;SDS011;16676;51.202;6.774;2023-08-20T22:33:04;7.97;;;1.92;;
29774;SDS011;16676;51.202;6.774;2023-08-20T22:37:06;6.75;;;1.80;;
29774;SDS011;16676;51.202;6.774;2023-08-20T22:41:08;5.22;;;1.83;;
29774;SDS011;16676;51.202;6.774;2023-08-20T22:45:10;3.17;;;1.65;;
29774;SDS011;16676;51.202;6.774;2023-08-20T22:49:13;3.22;;;1.40;;
29774;SDS011;16676;51.202;6.774;2023-08-20T22:53:15;8.75;;;1.80;;
29774;SDS011;16676;51.202;6.774;2023-08-20T22:57:17;5.38;;;1.83;;
29774;SDS011;16676;51.202;6.774;2023-08-20T23:01:19;6.15;;;1.75;;
29774;SDS011;16676;51.202;6.774;2023-08-20T23:05:22;8.20;;;1.90;;
29774;SDS011;16676;51.202;6.774;2023-08-20T23:09:24;4.07;;;1.80;;
29774;SDS011;16676;51.202;6.774;2023-08-20T23:13:26;4.88;;;1.58;;
29774;SDS011;16676;51.202;6.774;2023-08-20T23:17:28;5.32;;;1.77;;
29774;SDS011;16676;51.202;6.774;2023-08-20T23:21:31;4.25;;;1.67;;
29774;SDS011;16676;51.202;6.774;2023-08-20T23:25:34;3.10;;;1.30;;
29774;SDS011;16676;51.202;6.774;2023-08-20T23:29:36;8.07;;;2.47;;
29774;SDS011;16676;51.202;6.774;2023-08-20T23:33:38;6.65;;;2.10;;
29774;SDS011;16676;51.202;6.774;2023-08-20T23:37:41;4.88;;;2.40;;
29774;SDS011;16676;51.202;6.774;2023-08-20T23:41:43;5.40;;;2.72;;
29774;SDS011;16676;51.202;6.774;2023-08-20T23:45:45;6.47;;;2.17;;
29774;SDS011;16676;51.202;6.774;2023-08-20T23:49:47;5.57;;;1.95;;
29774;SDS011;16676;51.202;6.774;2023-08-20T23:53:50;10.15;;;2.10;;
29774;SDS011;16676;51.202;6.774;2023-08-20T23:57:52;6.40;;;1.70;;
